Aérodrome :
LOGIN :

S'inscrire | Disclaimer

   EN    FR    IT 

 










Légende :    VFR   VFR Marginal   IFR   IFR Intensif   IFR Très Intensif
Visi : 
Plafond : 
>= 8 km
>= 3000ft
5 à 8 km
1000 à 3000 ft
1500m à 5 km
500 à 1000 ft
800 à 1500m
200 à 500 ft
< 800m
< 200 ft
Symboles :   Orages  Brouillard  Fortes neiges  Fortes précipitations  Vent > 20 kt
SIGMETs :   Divers  Orages  Givrage  Turbulence  Onde Orograph.  Cendres Volcan.






- Altitude de l'aérodrome : 13 ft
- Code IATA : SNR


LFRZ - St-Nazaire

DERNIER METAR :
  • 231400Z AUTO 32008KT 270V010 9999 BKN030 08/03 Q0999 NOSIG

METARs EXPIRÉS :
  • 231330Z AUTO 34012KT 310V010 9999 SCT029 08/03 Q0998 NOSIG
  • 231300Z AUTO 33013KT 270V020 9999 FEW028 SCT034 08/03 Q0998 NOSIG
  • 231230Z AUTO 32013KT 280V360 9999 BKN024 BKN029 BKN036 07/03 Q0998 NOSIG
  • 231200Z AUTO 31011G22KT 270V360 9999 OVC024 07/03 Q0997 NOSIG
  • 231130Z AUTO 30014G27KT 270V350 9999 OVC023 07/03 Q0996 NOSIG

TAF TAF LFRZ
Valide du 23 à 12h jusqu'au 24 à 12h UTC


231100Z 2312/2412 30020G36KT 9999 SCT020 SCT040
BECMG 2312/2313 30015G25KT
BECMG 2313/2315 31010KT
BECMG 2320/2322 VRB03KT
BECMG 2409/2411 26012KT
TEMPO 2403/2412 4500 SHRA BKN030TCU



MET'MAP, la Météo Aéronautique d'un coup d'oeil ! - Copyright ORBIFLY Décembre 2007 - Disclaimer

ORBIFLY MET'MAP TEAM :

Programmation & Développement : Alexandra Zaïnal
Sur une idée originale de : Baudouin d'Aumeries
Assistance à la programmation : Marc-Olivier Méhu
Soutien technique & logistique : Manuel Goepfert

Contact : metmap@orbifly.com




SOURCES & CREDITS :

   NOAA